Time;durP1;ratioP1;P1;durP2;ratioP2;P2;SDS_P1;SDS_P2;PMS_P1;PMS_P2;Temp;Humidity;BMP_temperature;BMP_pressure;BME280_temperature;BME280_humidity;BME280_pressure;Samples;Min_cycle;Max_cycle;Signal;HPM_P1;HPM_P2
2022/03/08 00:01:47;;;;;;;10.40;5.70;;;1.00;99.90;;;;;;6184484;23;20500;-86
2022/03/08 00:04:13;;;;;;;9.57;5.03;;;1.00;99.90;;;;;;6211664;23;20016;-87
2022/03/08 00:06:39;;;;;;;9.23;5.45;;;1.70;99.90;;;;;;6211547;23;20040;-88
2022/03/08 00:09:04;;;;;;;9.35;5.53;;;1.00;99.90;;;;;;6211744;23;20106;-88
2022/03/08 00:11:30;;;;;;;13.43;5.55;;;1.00;99.90;;;;;;6211906;23;20017;-87
2022/03/08 00:13:56;;;;;;;11.35;5.57;;;1.00;99.90;;;;;;6211816;23;20125;-87
2022/03/08 00:16:21;;;;;;;8.65;5.28;;;1.00;99.90;;;;;;6211294;23;20332;-83
2022/03/08 00:18:49;;;;;;;10.90;5.80;;;1.00;99.90;;;;;;6211870;23;20103;-86
2022/03/08 00:21:15;;;;;;;10.60;5.32;;;0.90;99.90;;;;;;6210936;23;20056;-87
2022/03/08 00:23:41;;;;;;;9.27;5.65;;;0.90;99.90;;;;;;6212042;23;20017;-88
2022/03/08 00:26:07;;;;;;;10.30;6.20;;;0.90;99.90;;;;;;6211927;23;20019;-87
2022/03/08 00:28:32;;;;;;;9.13;5.53;;;0.90;99.90;;;;;;6211678;23;20028;-86
2022/03/08 00:30:58;;;;;;;10.40;5.18;;;0.80;99.90;;;;;;6211988;23;20341;-87
2022/03/08 00:33:24;;;;;;;10.18;5.25;;;0.80;99.90;;;;;;6184550;23;20358;-86
2022/03/08 00:35:50;;;;;;;12.10;5.72;;;0.70;99.90;;;;;;6211661;23;20095;-87
2022/03/08 00:38:17;;;;;;;10.27;5.70;;;0.60;99.90;;;;;;6211179;23;20020;-88
2022/03/08 00:40:43;;;;;;;13.85;6.47;;;0.60;99.90;;;;;;6184708;23;20458;-86
2022/03/08 00:43:08;;;;;;;9.65;5.70;;;0.50;99.90;;;;;;6211707;23;20028;-87
2022/03/08 00:45:34;;;;;;;10.75;6.15;;;0.50;99.90;;;;;;6212840;23;20013;-86
2022/03/08 00:48:00;;;;;;;11.85;5.60;;;0.40;99.90;;;;;;6213636;23;20469;-86
2022/03/08 00:50:28;;;;;;;13.98;5.72;;;0.40;99.90;;;;;;6213558;23;20019;-86
2022/03/08 00:52:55;;;;;;;11.75;5.30;;;0.30;99.90;;;;;;6213390;23;20021;-87
2022/03/08 00:55:22;;;;;;;10.80;6.00;;;0.30;99.90;;;;;;6187251;23;20020;-86
2022/03/08 00:57:49;;;;;;;11.77;5.70;;;0.20;99.90;;;;;;6213743;23;20329;-86
2022/03/08 01:00:17;;;;;;;10.98;5.90;;;0.20;99.90;;;;;;6213518;23;20009;-87
2022/03/08 01:02:44;;;;;;;8.40;5.20;;;0.10;99.90;;;;;;6186043;23;20358;-87
2022/03/08 01:05:10;;;;;;;9.98;5.68;;;0.10;99.90;;;;;;6213637;23;20009;-87
2022/03/08 01:07:36;;;;;;;12.20;5.93;;;0.10;99.90;;;;;;6213225;23;20023;-86
2022/03/08 01:16:27;;;;;;;10.50;5.22;;;-0.10;99.90;;;;;;6262506;22;20497;-86
2022/03/08 01:18:52;;;;;;;9.57;5.55;;;-0.10;99.90;;;;;;6272423;22;20028;-85
2022/03/08 01:21:18;;;;;;;11.05;5.72;;;1.00;99.90;;;;;;6245341;22;20016;-87
2022/03/08 01:23:44;;;;;;;14.38;6.03;;;-0.10;99.90;;;;;;6246177;22;20027;-86
2022/03/08 01:26:09;;;;;;;12.65;6.18;;;-0.10;99.90;;;;;;6272325;22;20641;-83
2022/03/08 01:28:35;;;;;;;9.52;5.82;;;-0.20;99.90;;;;;;6246911;22;20030;-84
2022/03/08 01:31:02;;;;;;;9.13;5.50;;;-0.20;99.90;;;;;;6246903;22;20045;-84
2022/03/08 01:33:28;;;;;;;10.73;5.78;;;-0.20;99.90;;;;;;6272190;22;20012;-86
2022/03/08 01:35:55;;;;;;;9.52;5.25;;;-0.20;99.90;;;;;;6246017;22;20320;-86
2022/03/08 01:38:20;;;;;;;9.90;5.75;;;-0.20;99.90;;;;;;6272340;22;20022;-83
2022/03/08 01:40:46;;;;;;;11.30;5.88;;;-0.20;99.90;;;;;;6245716;22;20095;-85
2022/03/08 01:43:12;;;;;;;9.57;5.55;;;-0.30;99.90;;;;;;6272136;22;20035;-82
2022/03/08 01:45:37;;;;;;;10.45;5.82;;;-0.30;99.90;;;;;;6272254;22;20445;-86
2022/03/08 01:48:03;;;;;;;13.23;6.25;;;-0.30;99.90;;;;;;6272583;22;20084;-84
2022/03/08 01:50:29;;;;;;;12.43;6.03;;;-0.30;99.90;;;;;;6273912;22;20777;-87
2022/03/08 01:52:55;;;;;;;13.75;7.00;;;-0.30;99.90;;;;;;6274430;22;20097;-80
2022/03/08 01:55:21;;;;;;;10.68;6.13;;;-0.30;99.90;;;;;;6273741;22;20016;-86
2022/03/08 01:57:50;;;;;;;11.32;6.65;;;-0.30;99.90;;;;;;6273830;22;20069;-86
2022/03/08 02:00:23;;;;;;;10.50;6.03;;;-0.30;99.90;;;;;;6272176;22;20069;-83
2022/03/08 02:02:49;;;;;;;11.45;6.40;;;-0.30;99.90;;;;;;6273644;22;20504;-86
2022/03/08 02:05:14;;;;;;;12.15;5.93;;;-0.30;99.90;;;;;;6274005;22;20043;-86
2022/03/08 02:07:40;;;;;;;10.68;6.07;;;-0.30;99.90;;;;;;6273860;22;20071;-82
2022/03/08 02:10:07;;;;;;;11.73;6.22;;;-0.30;99.90;;;;;;6273811;22;20377;-84
2022/03/08 02:12:33;;;;;;;12.43;6.82;;;-0.30;99.90;;;;;;6274505;22;20423;-85
2022/03/08 02:15:09;;;;;;;10.38;5.68;;;-0.30;99.90;;;;;;6274011;22;20022;-86
2022/03/08 02:17:35;;;;;;;13.55;7.68;;;-0.30;99.90;;;;;;6274204;22;20104;-85
2022/03/08 02:20:01;;;;;;;12.50;6.68;;;-1.20;99.90;;;;;;6273980;22;20023;-83
2022/03/08 02:22:26;;;;;;;10.90;6.18;;;-0.30;99.90;;;;;;6273995;22;20391;-85
2022/03/08 02:24:52;;;;;;;11.93;7.13;;;-0.30;99.90;;;;;;6274194;22;20083;-85
2022/03/08 02:27:18;;;;;;;14.20;6.85;;;-0.30;99.90;;;;;;6270856;22;20066;-86
2022/03/08 02:29:44;;;;;;;11.00;6.63;;;-0.30;99.90;;;;;;6274091;22;20016;-85
2022/03/08 02:32:10;;;;;;;12.30;6.80;;;-0.30;99.90;;;;;;6274191;22;20012;-86
2022/03/08 02:34:35;;;;;;;14.82;6.93;;;-0.30;99.90;;;;;;6273997;22;20638;-81
2022/03/08 02:37:13;;;;;;;13.73;6.55;;;-0.30;99.90;;;;;;6273873;22;20021;-85
2022/03/08 02:39:40;;;;;;;11.90;6.57;;;-0.30;99.90;;;;;;6273684;22;20098;-86
2022/03/08 02:42:07;;;;;;;11.20;6.05;;;-0.40;99.90;;;;;;6271731;22;20016;-86
2022/03/08 02:44:33;;;;;;;11.82;6.63;;;-0.30;99.90;;;;;;6274033;22;20015;-84
2022/03/08 02:47:03;;;;;;;12.80;7.13;;;-0.30;99.90;;;;;;6273593;22;20360;-87
2022/03/08 02:49:29;;;;;;;11.07;6.57;;;-0.30;99.90;;;;;;6273503;22;20019;-87
2022/03/08 02:51:56;;;;;;;15.68;6.88;;;-0.30;99.90;;;;;;6273713;22;20046;-87
2022/03/08 02:54:22;;;;;;;14.90;6.68;;;-0.40;99.90;;;;;;6244942;22;20055;-87
2022/03/08 02:56:48;;;;;;;11.27;6.43;;;-0.30;99.90;;;;;;6271162;22;20492;-87
2022/03/08 02:59:24;;;;;;;11.05;6.45;;;-0.40;99.90;;;;;;6273122;22;20019;-87
2022/03/08 03:01:50;;;;;;;14.57;7.80;;;-0.40;99.90;;;;;;6272031;22;20065;-87
2022/03/08 03:04:15;;;;;;;11.48;6.80;;;-0.40;99.90;;;;;;6272551;22;20094;-86
2022/03/08 03:06:41;;;;;;;17.05;6.90;;;0.20;99.90;;;;;;6272489;22;20019;-85
2022/03/08 03:09:07;;;;;;;14.23;6.63;;;-0.40;99.90;;;;;;6272592;22;20073;-87
2022/03/08 03:11:33;;;;;;;12.43;7.20;;;-0.40;99.90;;;;;;6272966;22;20095;-87
2022/03/08 03:13:58;;;;;;;15.10;6.80;;;-0.40;99.90;;;;;;6272876;22;20050;-84
2022/03/08 03:16:24;;;;;;;17.33;7.80;;;-0.40;99.90;;;;;;6272649;22;20442;-85
2022/03/08 03:18:50;;;;;;;12.93;6.85;;;-0.50;99.90;;;;;;6273079;22;20027;-85
2022/03/08 03:21:15;;;;;;;12.52;6.95;;;-0.40;99.90;;;;;;6273163;22;20019;-84
2022/03/08 03:23:41;;;;;;;12.65;6.93;;;-0.50;99.90;;;;;;6272670;22;20448;-84
2022/03/08 03:26:07;;;;;;;15.15;7.07;;;-0.40;99.90;;;;;;6273214;22;20483;-84
2022/03/08 03:28:32;;;;;;;11.60;6.47;;;-0.40;99.90;;;;;;6270572;22;20391;-85
2022/03/08 03:30:58;;;;;;;14.32;7.05;;;-0.50;99.90;;;;;;6273069;22;20062;-84
2022/03/08 03:33:24;;;;;;;13.40;6.90;;;0.30;99.90;;;;;;6272901;22;20024;-84
2022/03/08 03:35:49;;;;;;;11.55;6.72;;;-0.50;99.90;;;;;;6272881;22;20068;-84
2022/03/08 03:38:15;;;;;;;13.48;7.82;;;-0.50;99.90;;;;;;6272950;22;20027;-86
2022/03/08 03:40:41;;;;;;;14.52;7.45;;;-0.50;99.90;;;;;;6272199;22;20161;-85
2022/03/08 03:43:06;;;;;;;18.45;7.80;;;-0.50;99.90;;;;;;6272743;22;20020;-85
2022/03/08 03:45:32;;;;;;;16.95;8.13;;;-0.60;99.90;;;;;;6272420;22;20166;-85
2022/03/08 03:47:57;;;;;;;16.23;8.18;;;-0.60;99.90;;;;;;6272863;22;20086;-85
2022/03/08 03:50:23;;;;;;;17.25;8.45;;;-0.60;99.90;;;;;;6272972;22;20015;-85
2022/03/08 03:52:49;;;;;;;16.92;8.20;;;-0.60;99.90;;;;;;6272501;22;20022;-85
2022/03/08 03:55:14;;;;;;;16.98;8.20;;;-0.60;99.90;;;;;;6272776;22;20015;-84
2022/03/08 03:57:40;;;;;;;16.00;7.32;;;-0.60;99.90;;;;;;6272712;22;20034;-85
2022/03/08 04:00:08;;;;;;;16.40;7.93;;;-0.60;99.90;;;;;;6272256;22;20023;-85
2022/03/08 04:02:34;;;;;;;13.57;7.53;;;-0.60;99.90;;;;;;6272863;22;20468;-85
2022/03/08 04:04:59;;;;;;;12.27;7.60;;;-0.70;99.90;;;;;;6272335;22;20051;-85
2022/03/08 04:07:25;;;;;;;15.60;8.13;;;-0.60;99.90;;;;;;6270298;22;20043;-85
2022/03/08 04:09:51;;;;;;;14.40;7.85;;;-0.70;99.90;;;;;;6272607;22;20016;-83
2022/03/08 04:12:17;;;;;;;15.85;8.55;;;-0.70;99.90;;;;;;6272281;22;20007;-84
2022/03/08 04:14:42;;;;;;;14.20;7.97;;;-0.70;99.90;;;;;;6269979;22;20042;-85
2022/03/08 04:17:08;;;;;;;15.10;8.48;;;-0.70;99.90;;;;;;6272143;22;20337;-83
2022/03/08 04:19:34;;;;;;;15.32;8.07;;;-0.70;99.90;;;;;;6272848;22;20023;-85
2022/03/08 04:21:59;;;;;;;15.40;8.57;;;-0.80;99.90;;;;;;6270281;22;20514;-83
2022/03/08 04:24:27;;;;;;;14.40;7.78;;;-0.80;99.90;;;;;;6272605;22;20046;-85
2022/03/08 04:26:52;;;;;;;16.15;7.72;;;-0.80;99.90;;;;;;6272712;22;20016;-85
2022/03/08 04:29:18;;;;;;;15.68;8.23;;;-0.80;99.90;;;;;;6272354;22;20498;-86
2022/03/08 04:31:44;;;;;;;15.73;8.40;;;-0.80;99.90;;;;;;6272132;22;20019;-86
2022/03/08 04:34:09;;;;;;;16.58;8.40;;;-0.80;99.90;;;;;;6272560;22;20016;-84
2022/03/08 04:36:35;;;;;;;15.93;8.80;;;-0.90;99.90;;;;;;6272610;22;20055;-85
2022/03/08 04:39:01;;;;;;;15.88;8.27;;;-0.80;99.90;;;;;;6270337;22;20012;-82
2022/03/08 04:41:27;;;;;;;15.15;7.95;;;-0.90;99.90;;;;;;6272317;22;20015;-84
2022/03/08 04:43:52;;;;;;;17.60;8.43;;;-0.90;99.90;;;;;;6272602;22;20018;-85
2022/03/08 04:46:18;;;;;;;18.25;8.60;;;-0.90;99.90;;;;;;6272574;22;20011;-85
2022/03/08 04:48:43;;;;;;;15.32;8.18;;;-0.90;99.90;;;;;;6272766;22;20023;-83
2022/03/08 04:51:09;;;;;;;15.30;8.90;;;-0.90;99.90;;;;;;6272452;22;20011;-83
2022/03/08 04:53:35;;;;;;;15.90;8.43;;;-0.90;99.90;;;;;;6272679;22;20433;-85
2022/03/08 04:56:00;;;;;;;23.50;9.37;;;-0.90;99.90;;;;;;6272376;22;20326;-85
2022/03/08 04:58:26;;;;;;;17.08;8.80;;;-0.90;99.90;;;;;;6272275;22;20024;-84
2022/03/08 05:00:52;;;;;;;15.88;8.93;;;-0.90;99.90;;;;;;6272292;22;20011;-85
2022/03/08 05:03:17;;;;;;;16.50;9.23;;;-0.90;99.90;;;;;;6272335;22;20015;-85
2022/03/08 05:05:43;;;;;;;15.10;7.97;;;-1.00;99.90;;;;;;6272820;22;20122;-85
2022/03/08 05:08:09;;;;;;;15.35;8.38;;;-0.60;99.90;;;;;;6272584;22;20087;-85
2022/03/08 05:10:35;;;;;;;15.67;8.93;;;-1.00;99.90;;;;;;6272703;22;20007;-85
2022/03/08 05:13:03;;;;;;;18.47;9.23;;;-1.00;99.90;;;;;;6272377;22;20517;-83
2022/03/08 05:15:29;;;;;;;16.70;9.23;;;-1.00;99.90;;;;;;6271794;22;20016;-85
2022/03/08 05:17:55;;;;;;;16.87;8.90;;;-1.00;99.90;;;;;;6271646;22;20023;-85
2022/03/08 05:20:21;;;;;;;14.63;8.07;;;-1.00;99.90;;;;;;6272558;22;20016;-83
2022/03/08 05:22:46;;;;;;;19.87;9.73;;;-1.00;99.90;;;;;;6271844;22;20046;-84
2022/03/08 05:25:12;;;;;;;17.33;8.80;;;-1.10;99.90;;;;;;6272098;22;20015;-80
2022/03/08 05:27:38;;;;;;;17.37;9.70;;;-1.00;99.90;;;;;;6272557;22;20086;-79
2022/03/08 05:30:06;;;;;;;16.67;9.30;;;-1.10;99.90;;;;;;6272726;22;20026;-82
2022/03/08 05:32:32;;;;;;;18.90;9.60;;;-1.00;99.90;;;;;;6273748;22;20089;-81
2022/03/08 05:34:57;;;;;;;19.95;9.30;;;-1.50;99.90;;;;;;6273795;22;20417;-81
2022/03/08 05:37:23;;;;;;;18.75;9.00;;;-1.00;99.90;;;;;;6271969;22;20038;-79
2022/03/08 05:39:49;;;;;;;15.73;8.63;;;-1.00;99.90;;;;;;6273655;22;20048;-82
2022/03/08 05:42:14;;;;;;;17.80;8.95;;;-1.10;99.90;;;;;;6271672;22;20046;-79
2022/03/08 05:44:40;;;;;;;18.17;9.80;;;-1.10;99.90;;;;;;6270526;22;20023;-84
2022/03/08 05:47:06;;;;;;;17.67;8.97;;;-1.10;99.90;;;;;;6271732;22;20012;-86
2022/03/08 05:49:32;;;;;;;17.67;8.97;;;-1.10;99.90;;;;;;6273578;22;20055;-82
2022/03/08 05:51:58;;;;;;;17.85;8.75;;;-1.10;99.90;;;;;;6270678;22;20049;-84
2022/03/08 05:54:24;;;;;;;18.73;9.82;;;-1.10;99.90;;;;;;6273374;22;20016;-85
2022/03/08 05:56:49;;;;;;;16.53;9.43;;;-1.10;99.90;;;;;;6273898;22;20043;-85
2022/03/08 05:59:15;;;;;;;17.87;9.70;;;-1.10;99.90;;;;;;6271625;22;20524;-86
2022/03/08 06:01:41;;;;;;;21.50;10.03;;;-1.10;99.90;;;;;;6273295;22;20027;-81
2022/03/08 06:04:07;;;;;;;21.17;10.00;;;-1.20;99.90;;;;;;6273539;22;20012;-85
2022/03/08 06:06:33;;;;;;;18.98;9.82;;;-1.20;99.90;;;;;;6272892;22;20047;-84
2022/03/08 06:08:58;;;;;;;18.50;10.07;;;-0.20;99.90;;;;;;6273808;22;20020;-82
2022/03/08 06:11:24;;;;;;;18.17;9.57;;;-1.20;99.90;;;;;;6271020;22;20026;-85
2022/03/08 06:13:50;;;;;;;19.03;9.43;;;-1.20;99.90;;;;;;6273891;22;20043;-82
2022/03/08 06:16:15;;;;;;;23.70;11.13;;;-1.20;99.90;;;;;;6273690;22;20417;-84
2022/03/08 06:18:41;;;;;;;17.90;9.63;;;-1.20;99.90;;;;;;6273304;22;20078;-85
2022/03/08 06:21:07;;;;;;;18.90;10.07;;;-1.20;99.90;;;;;;6273741;22;20022;-86
2022/03/08 06:23:33;;;;;;;22.50;10.33;;;-1.20;99.90;;;;;;6271951;22;20016;-85
2022/03/08 06:25:59;;;;;;;18.43;10.73;;;-1.20;99.90;;;;;;6273550;22;20026;-85
2022/03/08 06:28:25;;;;;;;18.47;10.27;;;-1.20;99.90;;;;;;6273242;22;20019;-84
2022/03/08 06:30:50;;;;;;;19.97;9.93;;;-1.10;99.90;;;;;;6273297;22;20090;-83
2022/03/08 06:33:16;;;;;;;18.03;9.47;;;-1.10;99.90;;;;;;6273846;22;20016;-81
2022/03/08 06:35:41;;;;;;;22.00;10.53;;;-1.10;99.90;;;;;;6273001;22;20368;-82
2022/03/08 06:38:07;;;;;;;22.10;10.40;;;-1.10;99.90;;;;;;6273788;22;20425;-83
2022/03/08 06:40:33;;;;;;;20.57;10.13;;;-1.10;99.90;;;;;;6271711;22;20023;-85
2022/03/08 06:42:58;;;;;;;20.45;9.70;;;-1.00;99.90;;;;;;6272581;22;20023;-83
2022/03/08 06:45:24;;;;;;;17.45;9.52;;;-1.00;99.90;;;;;;6272931;22;20011;-84
2022/03/08 06:47:50;;;;;;;18.53;9.37;;;-1.00;99.90;;;;;;6273231;22;20019;-83
2022/03/08 06:50:15;;;;;;;19.03;10.53;;;-1.00;99.90;;;;;;6272737;22;20031;-85
2022/03/08 06:52:41;;;;;;;18.50;9.80;;;-1.00;99.90;;;;;;6272975;22;20019;-83
2022/03/08 06:55:07;;;;;;;19.63;9.43;;;-0.90;99.90;;;;;;6271409;22;20391;-84
2022/03/08 06:57:33;;;;;;;16.42;10.02;;;-0.90;99.90;;;;;;6271246;22;20034;-85
2022/03/08 06:59:59;;;;;;;21.20;10.02;;;-0.90;99.90;;;;;;6273414;22;20023;-85
2022/03/08 07:02:25;;;;;;;17.87;9.30;;;-0.80;99.90;;;;;;6272604;22;20598;-83
2022/03/08 07:04:51;;;;;;;19.43;10.33;;;-0.80;99.90;;;;;;6273029;22;20077;-85
2022/03/08 07:07:17;;;;;;;25.17;11.97;;;-0.70;99.90;;;;;;6272925;22;20095;-81
2022/03/08 07:09:42;;;;;;;20.15;10.60;;;-0.70;99.90;;;;;;6273374;22;20069;-84
2022/03/08 07:12:09;;;;;;;18.63;10.13;;;-0.70;99.90;;;;;;6273079;22;20455;-86
2022/03/08 07:14:34;;;;;;;22.55;10.32;;;-0.60;99.90;;;;;;6272832;22;20066;-82
2022/03/08 07:17:00;;;;;;;20.42;10.68;;;-0.50;99.90;;;;;;6270598;22;20024;-81
2022/03/08 07:19:26;;;;;;;21.92;10.57;;;-0.50;99.90;;;;;;6272878;22;20027;-84
2022/03/08 07:21:51;;;;;;;17.95;10.00;;;-0.40;99.90;;;;;;6272581;22;20016;-84
2022/03/08 07:24:17;;;;;;;19.25;9.43;;;-0.40;99.90;;;;;;6273303;22;20015;-86
2022/03/08 07:26:42;;;;;;;18.65;10.27;;;-0.30;99.90;;;;;;6272575;22;20020;-83
2022/03/08 07:29:08;;;;;;;19.60;10.10;;;-0.20;99.90;;;;;;6273110;22;20023;-85
2022/03/08 07:31:34;;;;;;;21.23;10.18;;;-0.20;99.90;;;;;;6271127;22;20018;-87
2022/03/08 07:33:59;;;;;;;20.23;9.93;;;-0.10;99.90;;;;;;6273208;22;20368;-87
2022/03/08 07:36:26;;;;;;;20.48;10.95;;;0.00;99.90;;;;;;6272377;22;20406;-85
2022/03/08 07:38:51;;;;;;;24.30;10.30;;;0.10;99.90;;;;;;6270262;22;20090;-83
2022/03/08 07:41:17;;;;;;;23.85;11.20;;;0.20;99.90;;;;;;6271416;22;20062;-84
2022/03/08 07:43:43;;;;;;;20.98;10.32;;;0.20;99.90;;;;;;6273041;22;20435;-85
2022/03/08 07:46:09;;;;;;;15.73;9.75;;;0.30;99.90;;;;;;6273019;22;20019;-84
2022/03/08 07:48:36;;;;;;;18.98;10.57;;;0.40;99.90;;;;;;6271004;22;20023;-85
2022/03/08 07:51:02;;;;;;;23.33;10.02;;;0.50;99.90;;;;;;6272586;22;20506;-81
2022/03/08 07:53:27;;;;;;;19.20;10.32;;;0.50;99.90;;;;;;6272318;22;20012;-85
2022/03/08 07:55:54;;;;;;;18.15;9.32;;;0.60;99.90;;;;;;6272146;22;20373;-85
2022/03/08 07:58:20;;;;;;;17.20;10.18;;;0.70;99.90;;;;;;6270662;22;20023;-86
2022/03/08 08:00:46;;;;;;;17.42;9.50;;;0.80;99.90;;;;;;6273036;22;20012;-83
2022/03/08 08:03:12;;;;;;;16.60;9.95;;;0.90;99.90;;;;;;6273223;22;20027;-86
2022/03/08 08:05:39;;;;;;;16.60;9.40;;;1.00;99.90;;;;;;6273269;22;20065;-84
2022/03/08 08:08:05;;;;;;;15.60;8.95;;;1.20;99.90;;;;;;6272495;22;20024;-84
2022/03/08 08:10:32;;;;;;;19.65;9.95;;;1.30;99.90;;;;;;6273047;22;20042;-85
2022/03/08 08:12:58;;;;;;;15.35;9.18;;;1.40;99.90;;;;;;6270874;22;20030;-84
2022/03/08 08:15:23;;;;;;;13.10;8.10;;;1.50;99.90;;;;;;6269335;22;20016;-82
2022/03/08 08:17:49;;;;;;;18.77;10.30;;;1.60;99.90;;;;;;6272331;22;20102;-88
2022/03/08 08:20:15;;;;;;;17.08;9.40;;;1.70;99.90;;;;;;6272694;22;20019;-86
2022/03/08 08:22:41;;;;;;;17.40;9.40;;;1.90;99.90;;;;;;6272521;22;20019;-83
2022/03/08 08:25:08;;;;;;;14.73;8.75;;;2.60;99.90;;;;;;6272702;22;20023;-85
2022/03/08 08:27:34;;;;;;;17.63;9.25;;;2.10;99.90;;;;;;6269609;22;20018;-88
2022/03/08 08:30:00;;;;;;;14.93;9.10;;;2.20;99.90;;;;;;6272774;22;20333;-82
2022/03/08 08:32:26;;;;;;;18.30;9.05;;;2.40;99.90;;;;;;6272907;22;20024;-82
2022/03/08 08:34:51;;;;;;;21.30;9.43;;;3.40;99.90;;;;;;6272884;22;20004;-86
2022/03/08 08:37:17;;;;;;;19.58;10.15;;;3.70;99.90;;;;;;6272649;22;20019;-85
2022/03/08 08:39:42;;;;;;;18.50;9.68;;;3.70;99.90;;;;;;6272490;22;20016;-79
2022/03/08 08:42:09;;;;;;;16.33;8.93;;;2.90;99.90;;;;;;6272495;22;20042;-84
2022/03/08 08:44:34;;;;;;;14.50;9.32;;;3.10;99.90;;;;;;6272768;22;20016;-86
2022/03/08 08:47:01;;;;;;;14.80;8.82;;;3.20;99.90;;;;;;6272525;22;20018;-84
2022/03/08 08:49:27;;;;;;;15.77;9.48;;;3.40;99.90;;;;;;6272803;22;20018;-86
2022/03/08 08:51:53;;;;;;;16.65;9.48;;;3.60;99.90;;;;;;6272813;22;20047;-81
2022/03/08 08:54:19;;;;;;;13.95;8.32;;;3.80;99.90;;;;;;6272354;22;20391;-82
2022/03/08 08:56:44;;;;;;;14.02;8.23;;;3.90;99.90;;;;;;6272737;22;20015;-85
2022/03/08 08:59:10;;;;;;;12.10;7.97;;;4.20;99.90;;;;;;6272753;22;20019;-86
2022/03/08 09:01:36;;;;;;;15.20;8.30;;;4.40;99.90;;;;;;6272459;22;20459;-84
2022/03/08 09:04:03;;;;;;;13.48;8.85;;;5.20;99.90;;;;;;6272341;22;20024;-85
2022/03/08 09:06:28;;;;;;;12.88;8.02;;;5.40;99.90;;;;;;6273835;22;20015;-87
2022/03/08 09:08:56;;;;;;;14.43;9.02;;;5.00;99.90;;;;;;6274367;22;20026;-83
2022/03/08 09:11:25;;;;;;;13.80;8.65;;;5.30;99.90;;;;;;6273757;22;20019;-81
2022/03/08 09:13:51;;;;;;;12.18;8.43;;;5.50;99.90;;;;;;6274405;22;20055;-87
2022/03/08 09:16:17;;;;;;;11.98;8.25;;;5.70;99.90;;;;;;6273354;22;20460;-81
2022/03/08 09:18:44;;;;;;;13.55;8.35;;;5.90;99.90;;;;;;6270468;22;20275;-83
2022/03/08 09:21:11;;;;;;;12.50;7.88;;;6.10;99.90;;;;;;6272049;22;20091;-85
2022/03/08 09:23:37;;;;;;;12.43;7.68;;;6.40;99.90;;;;;;6272215;22;20094;-85
2022/03/08 09:26:04;;;;;;;12.52;7.47;;;6.60;99.90;;;;;;6272390;22;20019;-87
2022/03/08 09:28:31;;;;;;;12.18;7.95;;;6.80;99.90;;;;;;6272731;22;20030;-86
2022/03/08 09:30:57;;;;;;;13.82;7.57;;;7.60;99.90;;;;;;6272643;22;20026;-88
2022/03/08 09:33:22;;;;;;;12.75;8.43;;;7.90;99.90;;;;;;6272334;22;20022;-85
2022/03/08 09:35:48;;;;;;;13.40;7.85;;;7.60;99.90;;;;;;6272481;22;20391;-86
2022/03/08 09:38:14;;;;;;;10.82;7.35;;;8.50;99.90;;;;;;6272372;22;20045;-82
2022/03/08 09:40:40;;;;;;;12.93;7.55;;;7.80;99.90;;;;;;6272565;22;20021;-88
2022/03/08 09:43:06;;;;;;;10.30;6.50;;;7.90;99.90;;;;;;6272351;22;20023;-89
2022/03/08 09:45:33;;;;;;;9.40;6.47;;;8.90;99.90;;;;;;6272526;22;20016;-85
2022/03/08 09:47:59;;;;;;;10.13;6.75;;;8.30;99.90;;;;;;6272376;22;20015;-86
2022/03/08 09:50:25;;;;;;;9.05;6.45;;;8.90;99.90;;;;;;6272125;22;20016;-87
2022/03/08 09:52:55;;;;;;;9.70;6.38;;;9.20;99.90;;;;;;6272680;22;20109;-87
2022/03/08 09:55:21;;;;;;;11.85;6.90;;;8.80;99.90;;;;;;6272478;22;20019;-86
2022/03/08 09:57:49;;;;;;;16.48;5.90;;;9.40;99.90;;;;;;6272220;22;20020;-87
2022/03/08 10:00:15;;;;;;;8.77;6.13;;;9.00;99.90;;;;;;6272222;22;20015;-87
2022/03/08 10:02:49;;;;;;;9.30;5.88;;;9.20;99.90;;;;;;6272381;22;20023;-91
2022/03/08 10:05:16;;;;;;;9.63;6.35;;;9.80;99.90;;;;;;6269854;22;20027;-83
2022/03/08 10:08:01;;;;;;;8.80;6.00;;;9.70;99.90;;;;;;6272400;22;20015;-87
2022/03/08 10:10:30;;;;;;;8.13;5.75;;;9.50;99.90;;;;;;6270335;22;20517;-88
2022/03/08 10:12:56;;;;;;;9.77;6.55;;;10.10;99.90;;;;;;6272091;22;20069;-87
2022/03/08 10:15:22;;;;;;;10.52;5.63;;;9.80;99.60;;;;;;6272421;22;20026;-86
2022/03/08 10:17:48;;;;;;;8.65;5.97;;;10.70;99.70;;;;;;6226106;22;1090854;-85
2022/03/08 10:20:28;;;;;;;16.80;5.57;;;9.90;98.90;;;;;;6274085;22;20085;-88
2022/03/08 10:22:54;;;;;;;9.23;6.18;;;10.20;98.40;;;;;;6274169;22;20047;-88
2022/03/08 10:25:22;;;;;;;7.60;5.28;;;11.00;98.80;;;;;;6272348;22;20357;-88
2022/03/08 10:27:54;;;;;;;8.80;5.47;;;10.40;98.30;;;;;;6273524;22;20452;-87
2022/03/08 10:30:21;;;;;;;11.68;6.20;;;11.00;97.80;;;;;;6271978;22;20566;-87
2022/03/08 10:32:47;;;;;;;9.32;5.10;;;10.80;97.10;;;;;;6271907;22;20453;-87
2022/03/08 10:35:25;;;;;;;8.93;4.72;;;11.00;96.50;;;;;;6274020;22;20336;-85
2022/03/08 10:37:51;;;;;;;8.10;5.00;;;11.00;92.60;;;;;;6273760;22;20049;-87
2022/03/08 10:40:30;;;;;;;8.75;4.85;;;11.60;95.40;;;;;;6272991;22;20020;-83
2022/03/08 10:43:16;;;;;;;7.07;4.82;;;11.30;94.20;;;;;;6272909;22;20026;-83
2022/03/08 10:45:47;;;;;;;6.53;4.22;;;11.90;92.30;;;;;;6273496;22;20073;-86
2022/03/08 10:48:14;;;;;;;7.38;3.97;;;11.50;92.60;;;;;;6273972;22;20031;-87
2022/03/08 10:50:42;;;;;;;7.15;3.97;;;11.60;91.80;;;;;;6274012;22;20018;-88
2022/03/08 10:53:08;;;;;;;7.35;4.43;;;11.80;93.20;;;;;;6273733;22;20348;-88
2022/03/08 10:55:44;;;;;;;15.73;4.40;;;12.30;93.30;;;;;;6274667;22;20042;-90
2022/03/08 10:58:12;;;;;;;7.38;3.78;;;12.20;92.10;;;;;;6273260;22;20016;-89
2022/03/08 11:00:44;;;;;;;8.98;4.03;;;12.30;91.10;;;;;;6273701;22;20077;-86
2022/03/08 11:03:19;;;;;;;5.97;3.85;;;12.30;85.80;;;;;;6272951;22;20023;-91
2022/03/08 11:05:48;;;;;;;6.93;3.58;;;12.80;86.50;;;;;;6248669;22;20018;-86
2022/03/08 11:08:15;;;;;;;6.55;3.78;;;12.30;81.50;;;;;;6248202;22;20027;-86
2022/03/08 11:10:42;;;;;;;5.47;3.53;;;12.20;81.40;;;;;;6275144;22;20019;-89
2022/03/08 11:13:10;;;;;;;6.43;3.88;;;12.20;81.70;;;;;;6275637;22;20029;-88
2022/03/08 11:15:38;;;;;;;8.23;4.25;;;12.70;84.50;;;;;;6275408;22;20638;-89
2022/03/08 11:18:08;;;;;;;5.30;3.80;;;12.50;81.40;;;;;;6275262;22;20023;-91
2022/03/08 11:20:34;;;;;;;8.05;3.70;;;12.40;78.40;;;;;;6273562;22;20023;-89
2022/03/08 11:23:01;;;;;;;7.35;3.95;;;12.50;79.00;;;;;;6275329;22;20094;-89
2022/03/08 11:25:33;;;;;;;6.32;3.95;;;12.40;75.60;;;;;;6248558;22;20042;-89
2022/03/08 11:28:01;;;;;;;7.78;3.95;;;13.00;79.20;;;;;;6274558;22;20007;-87
2022/03/08 11:30:34;;;;;;;6.95;3.60;;;12.90;76.20;;;;;;6273445;22;20079;-87
2022/03/08 11:33:25;;;;;;;6.30;3.97;;;12.80;77.10;;;;;;6274517;22;20057;-89
2022/03/08 11:36:03;;;;;;;8.27;4.63;;;13.00;79.10;;;;;;6273518;22;20066;-86
2022/03/08 11:38:29;;;;;;;7.72;4.30;;;13.10;78.40;;;;;;6272870;22;20055;-87
2022/03/08 11:40:57;;;;;;;6.97;4.22;;;13.40;79.50;;;;;;6273125;22;20016;-86
2022/03/08 11:43:36;;;;;;;8.18;4.05;;;13.40;78.10;;;;;;6272905;22;20108;-85
2022/03/08 11:46:15;;;;;;;6.93;4.18;;;13.60;76.20;;;;;;6272728;22;20291;-84
2022/03/08 11:48:53;;;;;;;8.52;4.13;;;13.80;75.50;;;;;;6273136;22;20023;-87
2022/03/08 11:51:20;;;;;;;5.22;3.45;;;13.90;73.50;;;;;;6270817;22;20641;-87
2022/03/08 11:53:47;;;;;;;8.68;3.80;;;13.80;74.90;;;;;;6272892;22;20012;-86
2022/03/08 11:56:20;;;;;;;6.00;3.80;;;13.80;71.90;;;;;;6273338;22;20020;-87
2022/03/08 11:58:49;;;;;;;7.50;4.10;;;13.70;67.30;;;;;;6270975;22;20023;-86
2022/03/08 12:01:30;;;;;;;8.80;3.80;;;13.50;67.40;;;;;;6244652;22;20015;-87
2022/03/08 12:03:57;;;;;;;6.97;4.43;;;13.50;68.20;;;;;;6271256;22;20019;-88
2022/03/08 12:06:37;;;;;;;6.13;3.80;;;13.70;70.00;;;;;;6273652;22;20087;-88
2022/03/08 12:09:18;;;;;;;5.93;3.67;;;13.70;69.40;;;;;;6273175;22;20023;-87
2022/03/08 12:11:51;;;;;;;7.55;3.47;;;13.80;70.10;;;;;;6273297;22;20399;-89
2022/03/08 12:14:23;;;;;;;6.18;4.10;;;13.70;69.00;;;;;;6273107;22;20019;-81
2022/03/08 12:16:51;;;;;;;5.10;3.58;;;13.80;69.80;;;;;;6272122;22;20069;-87
2022/03/08 12:19:49;;;;;;;6.85;4.13;;;13.80;69.30;;;;;;6271006;22;20016;-87
2022/03/08 12:22:18;;;;;;;6.07;3.85;;;14.10;67.10;;;;;;6270839;22;20034;-89
2022/03/08 12:24:50;;;;;;;7.03;3.83;;;13.80;65.50;;;;;;6272388;22;20024;-83
2022/03/08 12:27:17;;;;;;;8.85;3.90;;;13.70;64.70;;;;;;6272605;22;20012;-83
2022/03/08 12:30:04;;;;;;;5.47;3.17;;;13.80;65.80;;;;;;6273579;22;20019;-93
2022/03/08 12:32:35;;;;;;;5.15;3.40;;;13.80;65.00;;;;;;6246305;22;20446;-88
2022/03/08 12:35:10;;;;;;;5.60;3.35;;;13.60;64.30;;;;;;6271952;22;20015;-86
2022/03/08 12:37:42;;;;;;;5.65;3.47;;;13.60;64.00;;;;;;6273152;22;20047;-86
2022/03/08 12:40:19;;;;;;;4.72;3.00;;;13.80;64.60;;;;;;6273135;22;20023;-95
2022/03/08 12:42:48;;;;;;;6.05;3.60;;;13.80;64.80;;;;;;6273425;22;20033;-88
2022/03/08 12:45:21;;;;;;;6.10;3.35;;;13.90;65.40;;;;;;6273164;22;20024;-88
2022/03/08 12:47:50;;;;;;;5.72;3.40;;;14.00;63.80;;;;;;6270543;22;20425;-87